sensor_id;sensor_type;location;lat;lon;timestamp;temperature;humidity
80176;DHT22;75462;42.122;24.736;2024-01-30T00:01:36;3.90;52.00
80176;DHT22;75462;42.122;24.736;2024-01-30T00:04:02;3.70;53.00
80176;DHT22;75462;42.122;24.736;2024-01-30T00:06:28;3.50;53.80
80176;DHT22;75462;42.122;24.736;2024-01-30T00:08:53;3.60;54.10
80176;DHT22;75462;42.122;24.736;2024-01-30T00:11:19;3.80;53.40
80176;DHT22;75462;42.122;24.736;2024-01-30T00:13:45;3.90;54.10
80176;DHT22;75462;42.122;24.736;2024-01-30T00:16:21;3.60;53.50
80176;DHT22;75462;42.122;24.736;2024-01-30T00:18:47;3.50;53.80
80176;DHT22;75462;42.122;24.736;2024-01-30T00:21:13;3.50;53.90
80176;DHT22;75462;42.122;24.736;2024-01-30T00:23:39;3.50;54.20
80176;DHT22;75462;42.122;24.736;2024-01-30T00:26:04;3.40;54.30
80176;DHT22;75462;42.122;24.736;2024-01-30T00:28:30;3.40;54.70
80176;DHT22;75462;42.122;24.736;2024-01-30T00:30:56;3.30;54.80
80176;DHT22;75462;42.122;24.736;2024-01-30T00:33:22;3.30;54.80
80176;DHT22;75462;42.122;24.736;2024-01-30T00:35:48;3.50;54.60
80176;DHT22;75462;42.122;24.736;2024-01-30T00:38:13;3.60;54.30
80176;DHT22;75462;42.122;24.736;2024-01-30T00:40:39;3.70;53.60
80176;DHT22;75462;42.122;24.736;2024-01-30T00:43:04;3.50;54.20
80176;DHT22;75462;42.122;24.736;2024-01-30T00:45:31;3.40;54.60
80176;DHT22;75462;42.122;24.736;2024-01-30T00:47:56;3.30;54.90
80176;DHT22;75462;42.122;24.736;2024-01-30T00:50:22;3.40;54.90
80176;DHT22;75462;42.122;24.736;2024-01-30T00:52:48;3.40;54.80
80176;DHT22;75462;42.122;24.736;2024-01-30T00:55:13;3.40;54.50
80176;DHT22;75462;42.122;24.736;2024-01-30T00:57:40;3.20;55.00
80176;DHT22;75462;42.122;24.736;2024-01-30T01:00:06;3.10;55.80
80176;DHT22;75462;42.122;24.736;2024-01-30T01:02:34;3.10;55.90
80176;DHT22;75462;42.122;24.736;2024-01-30T01:05:00;3.30;55.60
80176;DHT22;75462;42.122;24.736;2024-01-30T01:07:26;3.40;55.10
80176;DHT22;75462;42.122;24.736;2024-01-30T01:09:52;3.50;54.70
80176;DHT22;75462;42.122;24.736;2024-01-30T01:12:17;3.40;54.90
80176;DHT22;75462;42.122;24.736;2024-01-30T01:14:43;3.30;55.00
80176;DHT22;75462;42.122;24.736;2024-01-30T01:17:09;3.40;54.90
80176;DHT22;75462;42.122;24.736;2024-01-30T01:19:35;3.40;55.00
80176;DHT22;75462;42.122;24.736;2024-01-30T01:22:00;3.60;54.30
80176;DHT22;75462;42.122;24.736;2024-01-30T01:24:26;3.80;54.00
80176;DHT22;75462;42.122;24.736;2024-01-30T01:26:51;3.80;53.70
80176;DHT22;75462;42.122;24.736;2024-01-30T01:29:17;3.70;54.20
80176;DHT22;75462;42.122;24.736;2024-01-30T01:31:43;3.50;54.70
80176;DHT22;75462;42.122;24.736;2024-01-30T01:34:12;3.50;55.00
80176;DHT22;75462;42.122;24.736;2024-01-30T01:36:39;3.60;54.40
80176;DHT22;75462;42.122;24.736;2024-01-30T01:39:05;3.70;54.40
80176;DHT22;75462;42.122;24.736;2024-01-30T01:41:31;3.40;54.70
80176;DHT22;75462;42.122;24.736;2024-01-30T01:44:00;3.30;54.90
80176;DHT22;75462;42.122;24.736;2024-01-30T01:46:27;3.30;55.60
80176;DHT22;75462;42.122;24.736;2024-01-30T01:48:54;3.60;54.70
80176;DHT22;75462;42.122;24.736;2024-01-30T01:51:20;3.70;53.00
80176;DHT22;75462;42.122;24.736;2024-01-30T01:53:47;3.40;54.10
80176;DHT22;75462;42.122;24.736;2024-01-30T01:56:12;3.20;54.70
80176;DHT22;75462;42.122;24.736;2024-01-30T01:58:38;3.20;55.10
80176;DHT22;75462;42.122;24.736;2024-01-30T02:01:04;3.10;55.00
80176;DHT22;75462;42.122;24.736;2024-01-30T02:03:30;3.00;55.40
80176;DHT22;75462;42.122;24.736;2024-01-30T02:05:56;2.40;57.00
80176;DHT22;75462;42.122;24.736;2024-01-30T02:08:23;2.10;58.60
80176;DHT22;75462;42.122;24.736;2024-01-30T02:10:49;2.10;59.10
80176;DHT22;75462;42.122;24.736;2024-01-30T02:13:15;2.20;59.00
80176;DHT22;75462;42.122;24.736;2024-01-30T02:15:41;2.00;59.50
80176;DHT22;75462;42.122;24.736;2024-01-30T02:18:07;1.90;59.60
80176;DHT22;75462;42.122;24.736;2024-01-30T02:20:35;1.70;60.40
80176;DHT22;75462;42.122;24.736;2024-01-30T02:23:01;1.80;60.50
80176;DHT22;75462;42.122;24.736;2024-01-30T02:25:32;1.70;60.60
80176;DHT22;75462;42.122;24.736;2024-01-30T02:27:58;1.60;61.10
80176;DHT22;75462;42.122;24.736;2024-01-30T02:30:24;1.50;61.70
80176;DHT22;75462;42.122;24.736;2024-01-30T02:32:49;1.30;63.20
80176;DHT22;75462;42.122;24.736;2024-01-30T02:35:15;1.10;64.00
80176;DHT22;75462;42.122;24.736;2024-01-30T02:37:41;0.90;64.70
80176;DHT22;75462;42.122;24.736;2024-01-30T02:40:07;0.80;65.70
80176;DHT22;75462;42.122;24.736;2024-01-30T02:42:32;0.90;65.90
80176;DHT22;75462;42.122;24.736;2024-01-30T02:44:58;0.90;66.40
80176;DHT22;75462;42.122;24.736;2024-01-30T02:47:24;1.10;65.80
80176;DHT22;75462;42.122;24.736;2024-01-30T02:49:50;1.10;65.70
80176;DHT22;75462;42.122;24.736;2024-01-30T02:52:16;1.00;65.60
80176;DHT22;75462;42.122;24.736;2024-01-30T02:54:41;1.10;65.50
80176;DHT22;75462;42.122;24.736;2024-01-30T02:57:07;1.20;65.00
80176;DHT22;75462;42.122;24.736;2024-01-30T02:59:33;1.30;65.10
80176;DHT22;75462;42.122;24.736;2024-01-30T03:02:01;1.60;64.20
80176;DHT22;75462;42.122;24.736;2024-01-30T03:04:27;1.70;63.40
80176;DHT22;75462;42.122;24.736;2024-01-30T03:06:52;1.80;62.70
80176;DHT22;75462;42.122;24.736;2024-01-30T03:09:18;2.10;61.50
80176;DHT22;75462;42.122;24.736;2024-01-30T03:11:44;2.40;60.10
80176;DHT22;75462;42.122;24.736;2024-01-30T03:14:09;2.40;60.00
80176;DHT22;75462;42.122;24.736;2024-01-30T03:16:38;2.30;60.10
80176;DHT22;75462;42.122;24.736;2024-01-30T03:19:06;2.10;61.00
80176;DHT22;75462;42.122;24.736;2024-01-30T03:21:33;2.10;61.30
80176;DHT22;75462;42.122;24.736;2024-01-30T03:23:58;2.30;61.00
80176;DHT22;75462;42.122;24.736;2024-01-30T03:26:25;2.40;60.30
80176;DHT22;75462;42.122;24.736;2024-01-30T03:28:50;2.40;60.70
80176;DHT22;75462;42.122;24.736;2024-01-30T03:31:16;2.50;60.20
80176;DHT22;75462;42.122;24.736;2024-01-30T03:33:42;2.70;59.50
80176;DHT22;75462;42.122;24.736;2024-01-30T03:36:09;2.90;58.80
80176;DHT22;75462;42.122;24.736;2024-01-30T03:38:34;2.90;58.10
80176;DHT22;75462;42.122;24.736;2024-01-30T03:41:00;3.00;58.00
80176;DHT22;75462;42.122;24.736;2024-01-30T03:43:26;3.20;57.10
80176;DHT22;75462;42.122;24.736;2024-01-30T03:45:52;3.10;57.20
80176;DHT22;75462;42.122;24.736;2024-01-30T03:48:18;2.60;58.90
80176;DHT22;75462;42.122;24.736;2024-01-30T03:50:44;2.40;61.00
80176;DHT22;75462;42.122;24.736;2024-01-30T03:53:10;2.30;60.20
80176;DHT22;75462;42.122;24.736;2024-01-30T03:55:36;2.20;60.70
80176;DHT22;75462;42.122;24.736;2024-01-30T03:58:01;1.90;62.10
80176;DHT22;75462;42.122;24.736;2024-01-30T04:00:27;1.40;63.80
80176;DHT22;75462;42.122;24.736;2024-01-30T04:02:53;1.30;64.80
80176;DHT22;75462;42.122;24.736;2024-01-30T04:05:19;1.70;63.70
80176;DHT22;75462;42.122;24.736;2024-01-30T04:07:44;2.00;62.30
80176;DHT22;75462;42.122;24.736;2024-01-30T04:10:10;1.90;62.50
80176;DHT22;75462;42.122;24.736;2024-01-30T04:12:36;1.60;62.60
80176;DHT22;75462;42.122;24.736;2024-01-30T04:15:02;1.40;63.90
80176;DHT22;75462;42.122;24.736;2024-01-30T04:17:29;1.00;65.20
80176;DHT22;75462;42.122;24.736;2024-01-30T04:19:55;0.90;66.10
80176;DHT22;75462;42.122;24.736;2024-01-30T04:22:20;0.80;66.70
80176;DHT22;75462;42.122;24.736;2024-01-30T04:24:46;0.90;66.60
80176;DHT22;75462;42.122;24.736;2024-01-30T04:27:12;1.30;65.10
80176;DHT22;75462;42.122;24.736;2024-01-30T04:29:38;1.40;64.20
80176;DHT22;75462;42.122;24.736;2024-01-30T04:32:04;1.20;64.80
80176;DHT22;75462;42.122;24.736;2024-01-30T04:34:30;1.00;66.50
80176;DHT22;75462;42.122;24.736;2024-01-30T04:36:55;1.20;65.90
80176;DHT22;75462;42.122;24.736;2024-01-30T04:39:21;1.40;64.80
80176;DHT22;75462;42.122;24.736;2024-01-30T04:41:47;1.60;63.80
80176;DHT22;75462;42.122;24.736;2024-01-30T04:44:14;1.50;64.00
80176;DHT22;75462;42.122;24.736;2024-01-30T04:46:40;1.50;64.30
80176;DHT22;75462;42.122;24.736;2024-01-30T04:49:06;1.40;65.00
80176;DHT22;75462;42.122;24.736;2024-01-30T04:51:33;1.30;65.30
80176;DHT22;75462;42.122;24.736;2024-01-30T04:53:59;1.20;66.00
80176;DHT22;75462;42.122;24.736;2024-01-30T04:56:24;1.20;65.70
80176;DHT22;75462;42.122;24.736;2024-01-30T04:58:50;1.30;65.60
80176;DHT22;75462;42.122;24.736;2024-01-30T05:01:16;1.60;64.20
80176;DHT22;75462;42.122;24.736;2024-01-30T05:03:42;1.80;63.30
80176;DHT22;75462;42.122;24.736;2024-01-30T05:06:08;1.90;63.00
80176;DHT22;75462;42.122;24.736;2024-01-30T05:08:33;1.90;62.60
80176;DHT22;75462;42.122;24.736;2024-01-30T05:11:02;1.70;63.30
80176;DHT22;75462;42.122;24.736;2024-01-30T05:13:30;1.50;64.10
80176;DHT22;75462;42.122;24.736;2024-01-30T05:15:56;1.40;65.00
80176;DHT22;75462;42.122;24.736;2024-01-30T05:18:21;1.50;65.20
80176;DHT22;75462;42.122;24.736;2024-01-30T05:20:47;1.60;64.40
80176;DHT22;75462;42.122;24.736;2024-01-30T05:23:13;1.60;64.50
80176;DHT22;75462;42.122;24.736;2024-01-30T05:25:38;1.60;64.10
80176;DHT22;75462;42.122;24.736;2024-01-30T05:28:04;1.50;64.50
80176;DHT22;75462;42.122;24.736;2024-01-30T05:30:30;1.50;65.00
80176;DHT22;75462;42.122;24.736;2024-01-30T05:32:57;1.60;65.00
80176;DHT22;75462;42.122;24.736;2024-01-30T05:35:22;1.80;63.70
80176;DHT22;75462;42.122;24.736;2024-01-30T05:37:48;1.90;62.60
80176;DHT22;75462;42.122;24.736;2024-01-30T05:40:15;2.10;62.50
80176;DHT22;75462;42.122;24.736;2024-01-30T05:42:41;2.30;61.20
80176;DHT22;75462;42.122;24.736;2024-01-30T05:45:07;2.40;61.00
80176;DHT22;75462;42.122;24.736;2024-01-30T05:47:34;2.60;60.30
80176;DHT22;75462;42.122;24.736;2024-01-30T05:49:59;2.70;60.20
80176;DHT22;75462;42.122;24.736;2024-01-30T05:52:25;2.70;60.20
80176;DHT22;75462;42.122;24.736;2024-01-30T05:54:51;2.60;60.20
80176;DHT22;75462;42.122;24.736;2024-01-30T05:57:17;2.30;61.20
80176;DHT22;75462;42.122;24.736;2024-01-30T05:59:44;2.50;61.60
80176;DHT22;75462;42.122;24.736;2024-01-30T06:02:13;2.20;61.90
80176;DHT22;75462;42.122;24.736;2024-01-30T06:04:39;2.00;62.70
80176;DHT22;75462;42.122;24.736;2024-01-30T06:07:05;2.00;63.20
80176;DHT22;75462;42.122;24.736;2024-01-30T06:09:32;1.90;63.50
80176;DHT22;75462;42.122;24.736;2024-01-30T06:11:57;1.90;64.10
80176;DHT22;75462;42.122;24.736;2024-01-30T06:14:23;1.80;64.40
80176;DHT22;75462;42.122;24.736;2024-01-30T06:16:49;1.80;64.60
80176;DHT22;75462;42.122;24.736;2024-01-30T06:19:15;1.90;64.50
80176;DHT22;75462;42.122;24.736;2024-01-30T06:21:41;2.00;64.00
80176;DHT22;75462;42.122;24.736;2024-01-30T06:24:06;2.00;63.80
80176;DHT22;75462;42.122;24.736;2024-01-30T06:26:32;2.10;63.80
80176;DHT22;75462;42.122;24.736;2024-01-30T06:28:58;2.00;64.00
80176;DHT22;75462;42.122;24.736;2024-01-30T06:31:23;1.80;64.90
80176;DHT22;75462;42.122;24.736;2024-01-30T06:33:50;1.80;65.30
80176;DHT22;75462;42.122;24.736;2024-01-30T06:36:16;1.70;65.50
80176;DHT22;75462;42.122;24.736;2024-01-30T06:38:41;1.70;65.60
80176;DHT22;75462;42.122;24.736;2024-01-30T06:41:07;1.60;65.90
80176;DHT22;75462;42.122;24.736;2024-01-30T06:43:33;1.50;66.80
80176;DHT22;75462;42.122;24.736;2024-01-30T06:45:58;1.50;67.30
80176;DHT22;75462;42.122;24.736;2024-01-30T06:48:25;1.50;67.70
80176;DHT22;75462;42.122;24.736;2024-01-30T06:50:53;1.40;68.30
80176;DHT22;75462;42.122;24.736;2024-01-30T06:53:19;1.40;68.40
80176;DHT22;75462;42.122;24.736;2024-01-30T06:55:45;1.50;68.60
80176;DHT22;75462;42.122;24.736;2024-01-30T06:58:11;1.50;68.20
80176;DHT22;75462;42.122;24.736;2024-01-30T07:00:36;1.70;67.30
80176;DHT22;75462;42.122;24.736;2024-01-30T07:03:02;1.60;67.00
80176;DHT22;75462;42.122;24.736;2024-01-30T07:05:28;1.60;67.40
80176;DHT22;75462;42.122;24.736;2024-01-30T07:07:54;1.60;67.30
80176;DHT22;75462;42.122;24.736;2024-01-30T07:10:19;1.70;67.40
80176;DHT22;75462;42.122;24.736;2024-01-30T07:12:45;1.70;67.00
80176;DHT22;75462;42.122;24.736;2024-01-30T07:15:11;1.60;67.30
80176;DHT22;75462;42.122;24.736;2024-01-30T07:17:36;1.60;68.60
80176;DHT22;75462;42.122;24.736;2024-01-30T07:20:03;1.60;67.50
80176;DHT22;75462;42.122;24.736;2024-01-30T07:22:33;1.60;66.80
80176;DHT22;75462;42.122;24.736;2024-01-30T07:24:59;1.70;66.80
80176;DHT22;75462;42.122;24.736;2024-01-30T07:27:24;1.70;66.50
80176;DHT22;75462;42.122;24.736;2024-01-30T07:29:50;1.80;65.70
80176;DHT22;75462;42.122;24.736;2024-01-30T07:32:16;1.70;65.50
80176;DHT22;75462;42.122;24.736;2024-01-30T07:34:41;1.70;65.50
80176;DHT22;75462;42.122;24.736;2024-01-30T07:37:07;1.60;65.80
80176;DHT22;75462;42.122;24.736;2024-01-30T07:39:34;1.70;65.30
80176;DHT22;75462;42.122;24.736;2024-01-30T07:42:00;1.70;64.50
80176;DHT22;75462;42.122;24.736;2024-01-30T07:44:26;1.80;64.10
80176;DHT22;75462;42.122;24.736;2024-01-30T07:46:51;1.80;64.20
80176;DHT22;75462;42.122;24.736;2024-01-30T07:49:17;1.90;63.90
80176;DHT22;75462;42.122;24.736;2024-01-30T07:51:43;2.00;63.70
80176;DHT22;75462;42.122;24.736;2024-01-30T07:54:13;2.20;62.90
80176;DHT22;75462;42.122;24.736;2024-01-30T07:56:39;2.50;62.10
80176;DHT22;75462;42.122;24.736;2024-01-30T07:59:04;2.50;60.70
80176;DHT22;75462;42.122;24.736;2024-01-30T08:01:30;2.60;61.20
80176;DHT22;75462;42.122;24.736;2024-01-30T08:03:56;2.50;60.80
80176;DHT22;75462;42.122;24.736;2024-01-30T08:06:21;2.70;60.50
80176;DHT22;75462;42.122;24.736;2024-01-30T08:08:47;3.00;59.70
80176;DHT22;75462;42.122;24.736;2024-01-30T08:11:13;2.90;60.00
80176;DHT22;75462;42.122;24.736;2024-01-30T08:13:39;3.00;59.20
80176;DHT22;75462;42.122;24.736;2024-01-30T08:16:05;3.30;58.80
80176;DHT22;75462;42.122;24.736;2024-01-30T08:18:31;3.30;57.70
80176;DHT22;75462;42.122;24.736;2024-01-30T08:20:57;3.30;56.30
80176;DHT22;75462;42.122;24.736;2024-01-30T08:23:22;3.30;56.40
80176;DHT22;75462;42.122;24.736;2024-01-30T08:25:48;3.40;55.60
80176;DHT22;75462;42.122;24.736;2024-01-30T08:28:14;3.20;55.40
80176;DHT22;75462;42.122;24.736;2024-01-30T08:30:39;3.10;55.20
80176;DHT22;75462;42.122;24.736;2024-01-30T08:33:05;3.00;55.30
80176;DHT22;75462;42.122;24.736;2024-01-30T08:35:31;3.00;55.70
80176;DHT22;75462;42.122;24.736;2024-01-30T08:37:59;3.20;55.20
80176;DHT22;75462;42.122;24.736;2024-01-30T08:40:24;3.10;55.30
80176;DHT22;75462;42.122;24.736;2024-01-30T08:42:50;3.20;55.40
80176;DHT22;75462;42.122;24.736;2024-01-30T08:45:16;3.20;55.50
80176;DHT22;75462;42.122;24.736;2024-01-30T08:47:41;3.60;53.90
80176;DHT22;75462;42.122;24.736;2024-01-30T08:50:07;3.60;52.90
80176;DHT22;75462;42.122;24.736;2024-01-30T08:52:34;3.70;53.40
80176;DHT22;75462;42.122;24.736;2024-01-30T08:55:00;3.70;52.50
80176;DHT22;75462;42.122;24.736;2024-01-30T08:57:26;3.80;52.00
80176;DHT22;75462;42.122;24.736;2024-01-30T08:59:54;3.70;52.00
80176;DHT22;75462;42.122;24.736;2024-01-30T09:02:20;3.60;51.90
80176;DHT22;75462;42.122;24.736;2024-01-30T09:04:46;3.50;52.40
80176;DHT22;75462;42.122;24.736;2024-01-30T09:07:11;3.40;53.10
80176;DHT22;75462;42.122;24.736;2024-01-30T09:09:39;3.40;52.80
80176;DHT22;75462;42.122;24.736;2024-01-30T09:12:08;3.50;53.20
80176;DHT22;75462;42.122;24.736;2024-01-30T09:14:38;3.70;52.70
80176;DHT22;75462;42.122;24.736;2024-01-30T09:17:04;3.70;52.60
80176;DHT22;75462;42.122;24.736;2024-01-30T09:19:30;3.60;52.30
80176;DHT22;75462;42.122;24.736;2024-01-30T09:21:56;3.60;52.20
80176;DHT22;75462;42.122;24.736;2024-01-30T09:24:22;3.70;52.40
80176;DHT22;75462;42.122;24.736;2024-01-30T09:26:47;3.90;51.90
80176;DHT22;75462;42.122;24.736;2024-01-30T09:29:13;3.90;52.00
80176;DHT22;75462;42.122;24.736;2024-01-30T09:31:39;4.00;51.70
80176;DHT22;75462;42.122;24.736;2024-01-30T09:34:04;3.80;51.80
80176;DHT22;75462;42.122;24.736;2024-01-30T09:36:31;3.80;51.80
80176;DHT22;75462;42.122;24.736;2024-01-30T09:38:57;3.80;51.90
80176;DHT22;75462;42.122;24.736;2024-01-30T09:41:24;3.80;52.10
80176;DHT22;75462;42.122;24.736;2024-01-30T09:43:50;3.80;52.40
80176;DHT22;75462;42.122;24.736;2024-01-30T09:46:17;3.80;52.30
80176;DHT22;75462;42.122;24.736;2024-01-30T09:48:48;4.00;52.20
80176;DHT22;75462;42.122;24.736;2024-01-30T09:51:15;4.10;51.50
80176;DHT22;75462;42.122;24.736;2024-01-30T09:53:42;4.20;51.50
80176;DHT22;75462;42.122;24.736;2024-01-30T09:56:09;4.30;51.10
80176;DHT22;75462;42.122;24.736;2024-01-30T09:58:36;4.20;51.00
80176;DHT22;75462;42.122;24.736;2024-01-30T10:01:02;4.20;50.90
80176;DHT22;75462;42.122;24.736;2024-01-30T10:03:28;4.30;51.00
80176;DHT22;75462;42.122;24.736;2024-01-30T10:05:55;4.40;50.50
80176;DHT22;75462;42.122;24.736;2024-01-30T10:08:21;4.70;50.20
80176;DHT22;75462;42.122;24.736;2024-01-30T10:10:47;4.80;49.60
80176;DHT22;75462;42.122;24.736;2024-01-30T10:13:13;5.10;49.40
80176;DHT22;75462;42.122;24.736;2024-01-30T10:15:39;5.30;47.80
80176;DHT22;75462;42.122;24.736;2024-01-30T10:18:06;5.50;47.60
80176;DHT22;75462;42.122;24.736;2024-01-30T10:20:32;5.80;47.10
80176;DHT22;75462;42.122;24.736;2024-01-30T10:22:58;5.80;45.90
80176;DHT22;75462;42.122;24.736;2024-01-30T10:25:25;5.80;45.60
80176;DHT22;75462;42.122;24.736;2024-01-30T10:27:54;5.60;46.10
80176;DHT22;75462;42.122;24.736;2024-01-30T10:30:24;6.00;45.10
80176;DHT22;75462;42.122;24.736;2024-01-30T10:32:50;6.10;44.10
80176;DHT22;75462;42.122;24.736;2024-01-30T10:35:16;6.50;43.30
80176;DHT22;75462;42.122;24.736;2024-01-30T10:37:47;6.80;42.40
80176;DHT22;75462;42.122;24.736;2024-01-30T10:40:14;7.20;41.80
80176;DHT22;75462;42.122;24.736;2024-01-30T10:42:44;7.00;41.70
80176;DHT22;75462;42.122;24.736;2024-01-30T10:45:12;7.10;42.00
80176;DHT22;75462;42.122;24.736;2024-01-30T10:47:42;7.40;40.60
80176;DHT22;75462;42.122;24.736;2024-01-30T10:50:09;7.50;40.00
80176;DHT22;75462;42.122;24.736;2024-01-30T10:52:36;7.50;39.00
80176;DHT22;75462;42.122;24.736;2024-01-30T10:55:03;7.70;38.60
80176;DHT22;75462;42.122;24.736;2024-01-30T10:57:30;7.70;38.40
80176;DHT22;75462;42.122;24.736;2024-01-30T10:59:58;7.70;39.00
80176;DHT22;75462;42.122;24.736;2024-01-30T11:02:25;7.90;38.80
80176;DHT22;75462;42.122;24.736;2024-01-30T11:04:58;7.90;38.40
80176;DHT22;75462;42.122;24.736;2024-01-30T11:07:29;8.20;38.80
80176;DHT22;75462;42.122;24.736;2024-01-30T11:12:24;8.60;36.90
80176;DHT22;75462;42.122;24.736;2024-01-30T11:15:02;8.90;36.30
80176;DHT22;75462;42.122;24.736;2024-01-30T11:17:49;9.00;35.60
80176;DHT22;75462;42.122;24.736;2024-01-30T11:20:26;9.20;35.40
80176;DHT22;75462;42.122;24.736;2024-01-30T11:22:53;9.20;35.00
80176;DHT22;75462;42.122;24.736;2024-01-30T11:25:21;9.50;34.90
80176;DHT22;75462;42.122;24.736;2024-01-30T11:27:50;10.10;33.10
80176;DHT22;75462;42.122;24.736;2024-01-30T11:30:25;11.20;30.90
80176;DHT22;75462;42.122;24.736;2024-01-30T11:35:26;15.10;25.80
80176;DHT22;75462;42.122;24.736;2024-01-30T11:37:52;17.00;23.10
80176;DHT22;75462;42.122;24.736;2024-01-30T11:40:19;16.90;22.70
80176;DHT22;75462;42.122;24.736;2024-01-30T11:42:45;17.50;21.20
80176;DHT22;75462;42.122;24.736;2024-01-30T11:45:12;16.90;22.70
80176;DHT22;75462;42.122;24.736;2024-01-30T11:47:38;17.70;21.00
80176;DHT22;75462;42.122;24.736;2024-01-30T11:50:05;18.80;20.20
80176;DHT22;75462;42.122;24.736;2024-01-30T11:52:33;18.60;20.30
80176;DHT22;75462;42.122;24.736;2024-01-30T11:54:59;19.90;18.80
80176;DHT22;75462;42.122;24.736;2024-01-30T11:57:27;20.10;17.80
80176;DHT22;75462;42.122;24.736;2024-01-30T11:59:52;20.50;17.80
80176;DHT22;75462;42.122;24.736;2024-01-30T12:02:18;19.80;18.40
80176;DHT22;75462;42.122;24.736;2024-01-30T12:04:44;20.30;17.60
80176;DHT22;75462;42.122;24.736;2024-01-30T12:07:10;20.70;16.60
80176;DHT22;75462;42.122;24.736;2024-01-30T12:09:36;19.90;16.50
80176;DHT22;75462;42.122;24.736;2024-01-30T12:12:02;20.90;17.00
80176;DHT22;75462;42.122;24.736;2024-01-30T12:14:28;21.20;16.40
80176;DHT22;75462;42.122;24.736;2024-01-30T12:16:54;21.50;16.20
80176;DHT22;75462;42.122;24.736;2024-01-30T12:19:23;21.30;16.30
80176;DHT22;75462;42.122;24.736;2024-01-30T12:21:54;21.30;16.00
80176;DHT22;75462;42.122;24.736;2024-01-30T12:24:21;21.00;16.70
80176;DHT22;75462;42.122;24.736;2024-01-30T12:26:47;20.90;16.50
80176;DHT22;75462;42.122;24.736;2024-01-30T12:29:14;21.80;15.60
80176;DHT22;75462;42.122;24.736;2024-01-30T12:31:42;21.40;15.40
80176;DHT22;75462;42.122;24.736;2024-01-30T12:34:07;21.60;15.80
80176;DHT22;75462;42.122;24.736;2024-01-30T12:36:34;21.90;15.30
80176;DHT22;75462;42.122;24.736;2024-01-30T12:39:00;22.20;14.80
80176;DHT22;75462;42.122;24.736;2024-01-30T12:41:26;22.80;14.60
80176;DHT22;75462;42.122;24.736;2024-01-30T12:43:54;21.60;14.50
80176;DHT22;75462;42.122;24.736;2024-01-30T12:46:20;20.50;15.40
80176;DHT22;75462;42.122;24.736;2024-01-30T12:48:45;19.70;17.00
80176;DHT22;75462;42.122;24.736;2024-01-30T12:51:11;18.10;18.80
80176;DHT22;75462;42.122;24.736;2024-01-30T12:53:37;17.20;19.40
80176;DHT22;75462;42.122;24.736;2024-01-30T12:56:03;17.50;19.90
80176;DHT22;75462;42.122;24.736;2024-01-30T12:58:28;16.90;20.10
80176;DHT22;75462;42.122;24.736;2024-01-30T13:00:54;16.60;20.50
80176;DHT22;75462;42.122;24.736;2024-01-30T13:03:20;16.40;20.80
80176;DHT22;75462;42.122;24.736;2024-01-30T13:05:46;15.70;22.10
80176;DHT22;75462;42.122;24.736;2024-01-30T13:08:11;14.40;23.50
80176;DHT22;75462;42.122;24.736;2024-01-30T13:10:37;14.00;24.10
80176;DHT22;75462;42.122;24.736;2024-01-30T13:13:03;13.20;24.60
80176;DHT22;75462;42.122;24.736;2024-01-30T13:15:29;12.30;26.20
80176;DHT22;75462;42.122;24.736;2024-01-30T13:17:54;11.40;27.90
80176;DHT22;75462;42.122;24.736;2024-01-30T13:20:20;11.10;28.70
80176;DHT22;75462;42.122;24.736;2024-01-30T13:22:49;11.30;28.60
80176;DHT22;75462;42.122;24.736;2024-01-30T13:25:15;11.50;28.40
80176;DHT22;75462;42.122;24.736;2024-01-30T13:27:41;11.40;28.40
80176;DHT22;75462;42.122;24.736;2024-01-30T13:30:07;11.00;29.20
80176;DHT22;75462;42.122;24.736;2024-01-30T13:32:36;10.30;29.90
80176;DHT22;75462;42.122;24.736;2024-01-30T13:35:02;9.90;31.70
80176;DHT22;75462;42.122;24.736;2024-01-30T13:37:28;9.60;32.30
80176;DHT22;75462;42.122;24.736;2024-01-30T13:39:55;9.30;32.80
80176;DHT22;75462;42.122;24.736;2024-01-30T13:42:21;8.90;33.50
80176;DHT22;75462;42.122;24.736;2024-01-30T13:44:47;8.70;34.20
80176;DHT22;75462;42.122;24.736;2024-01-30T13:47:13;8.50;34.50
80176;DHT22;75462;42.122;24.736;2024-01-30T13:49:38;8.50;35.00
80176;DHT22;75462;42.122;24.736;2024-01-30T13:52:04;8.50;34.90
80176;DHT22;75462;42.122;24.736;2024-01-30T13:54:30;8.50;35.00
80176;DHT22;75462;42.122;24.736;2024-01-30T13:56:56;8.60;35.20
80176;DHT22;75462;42.122;24.736;2024-01-30T13:59:22;8.70;34.80
80176;DHT22;75462;42.122;24.736;2024-01-30T14:01:51;9.10;34.30
80176;DHT22;75462;42.122;24.736;2024-01-30T14:04:17;9.70;33.30
80176;DHT22;75462;42.122;24.736;2024-01-30T14:06:42;10.10;31.90
80176;DHT22;75462;42.122;24.736;2024-01-30T14:09:08;10.10;31.70
80176;DHT22;75462;42.122;24.736;2024-01-30T14:11:35;10.60;32.10
80176;DHT22;75462;42.122;24.736;2024-01-30T14:14:01;11.10;30.00
80176;DHT22;75462;42.122;24.736;2024-01-30T14:16:27;11.70;29.40
80176;DHT22;75462;42.122;24.736;2024-01-30T14:18:54;12.20;28.10
80176;DHT22;75462;42.122;24.736;2024-01-30T14:21:19;12.10;27.90
80176;DHT22;75462;42.122;24.736;2024-01-30T14:23:45;12.00;28.30
80176;DHT22;75462;42.122;24.736;2024-01-30T14:26:12;11.60;29.00
80176;DHT22;75462;42.122;24.736;2024-01-30T14:28:38;10.90;29.70
80176;DHT22;75462;42.122;24.736;2024-01-30T14:31:04;10.50;30.40
80176;DHT22;75462;42.122;24.736;2024-01-30T14:33:29;10.40;30.70
80176;DHT22;75462;42.122;24.736;2024-01-30T14:35:55;10.50;30.80
80176;DHT22;75462;42.122;24.736;2024-01-30T14:38:20;10.30;30.90
80176;DHT22;75462;42.122;24.736;2024-01-30T14:40:46;9.80;31.90
80176;DHT22;75462;42.122;24.736;2024-01-30T14:43:12;9.40;32.80
80176;DHT22;75462;42.122;24.736;2024-01-30T14:45:39;9.00;33.80
80176;DHT22;75462;42.122;24.736;2024-01-30T14:48:05;8.70;34.60
80176;DHT22;75462;42.122;24.736;2024-01-30T14:50:31;8.50;35.30
80176;DHT22;75462;42.122;24.736;2024-01-30T14:52:56;8.10;35.80
80176;DHT22;75462;42.122;24.736;2024-01-30T14:55:22;7.90;36.70
80176;DHT22;75462;42.122;24.736;2024-01-30T14:57:49;7.80;37.30
80176;DHT22;75462;42.122;24.736;2024-01-30T15:00:15;7.70;37.70
80176;DHT22;75462;42.122;24.736;2024-01-30T15:02:41;7.60;37.80
80176;DHT22;75462;42.122;24.736;2024-01-30T15:05:07;7.50;37.90
80176;DHT22;75462;42.122;24.736;2024-01-30T15:07:33;7.50;38.20
80176;DHT22;75462;42.122;24.736;2024-01-30T15:09:59;7.40;38.50
80176;DHT22;75462;42.122;24.736;2024-01-30T15:12:25;7.30;39.00
80176;DHT22;75462;42.122;24.736;2024-01-30T15:14:50;7.30;39.10
80176;DHT22;75462;42.122;24.736;2024-01-30T15:17:18;7.20;39.30
80176;DHT22;75462;42.122;24.736;2024-01-30T15:19:44;7.20;39.30
80176;DHT22;75462;42.122;24.736;2024-01-30T15:22:09;7.10;39.40
80176;DHT22;75462;42.122;24.736;2024-01-30T15:24:35;7.00;39.80
80176;DHT22;75462;42.122;24.736;2024-01-30T15:27:01;6.90;39.90